Sound Beach, NY (11789)

6:00 PM EDT on September 02, 2014 (GMT -0400)
Rocky Point Station | Change Station
CLOSE
Current Station
Personal Weather Station
Location: Rocky Point, NY
Elevation: 115 ft
Nearby Weather Stations
Active Advisory: Air Quality Alert

Elev 115 ft 40.95 °N, 72.94 °W | Updated 49 seconds ago

Partly Cloudy
Partly Cloudy
84.6 °F
Feels Like 94 °F
N
0.0
Wind Variable Wind from SE
Gusts 13.0 mph

Today
High -- | Low -- °F
--% Chance of Precip.
Yesterday
High -- | Low -- °F
Precip. -- in
6:19 AM 7:22 PM
First Quarter, 55% visible
Pressure 29.84 in
Visibility 10.0 miles
Clouds Clear
Heat Index 94 °F
Dew Point 76 °F
Humidity 75%
Rainfall 0.00 in
Snow Depth Not available.
UV 2 out of 12
Pollen 6.90 out of 12
Air Quality Not available.
Flu Activity Not available.
METAR KHWV 022056Z AUTO 21009KT 10SM CLR 29/22 A2984 RMK AO2 SLP104 T02940222 56015 TSNO

More Conditions Fewer Conditions

Pressure 29.84 in
Visibility 10.0 miles
Clouds Clear
Heat Index 94 °F
Dew Point 76 °F
Humidity 75%
Rainfall 0.00 in
Snow Depth Not available.
UV 2 out of 12
Pollen 6.90 out of 12
Air Quality Not available.
Flu Activity Not available.
METAR KHWV 022056Z AUTO 21009KT 10SM CLR 29/22 A2984 RMK AO2 SLP104 T02940222 56015 TSNO

More Conditions Fewer Conditions

10-Day Weather Forecast

Almanac

Astronomy

Sep. 02, 2014 Rise Set
Actual Time 6:19 AM EDT 7:22 PM EDT
Civil Twilight 5:51 AM EDT 7:50 PM EDT
Nautical Twilight 5:17 AM EDT 8:24 PM EDT
Astronomical Twilight 4:42 AM EDT 8:59 PM EDT
Moon 2:04 PM EDT No Moon Set
Length of Visible Light 13h 59m
Length of Day
13h 03m
Tomorrow will be 2m 37s shorter.
First Quarter, 55% of the Moon is Illuminated
Today
First Quarter
Sep 8
Full
Sep 15
Last Quarter
Sep 24
New
Oct 1
First Quarter

Today's Extremes

State Highs State Lows

Community

WunderPhotos

Upload Photos

1,749,782 photos uploaded!

Nearby

Air Quality

  Air Quality AQ Index Pollutant
Yesterday Good
OZONE
Tuesday Unhealthy for Sensitive Groups
OZONE
Tuesday Good
PM2.5
Wednesday Good
PM2.5

Snow Depth

Station Depth Elevation
No new snow has been reported.

Earthquake Activity

City Distance Mag. Time & Date
No recent earthquake activity has been reported nearby.
Minimum magnitude displayed is 2.5.

Coastal Water Temperatures

Place Temperature
New London, CT 72.0 °F
Newport, RI 72.0 °F
Quonset Point, RI 73.9 °F
Conimicut Light, RI 75.0 °F
Providence, RI 75.0 °F

Nearby Weather Stations